createdAt,value
2024-04-17T00:00:58.009Z,100001.38
2024-04-17T00:03:31.674Z,100007.09
2024-04-17T00:05:58.913Z,99997.31
2024-04-17T00:08:28.614Z,100004.31
2024-04-17T00:10:55.739Z,100005.16
2024-04-17T00:13:25.514Z,100002.72
2024-04-17T00:15:52.531Z,100002.22
2024-04-17T00:18:22.221Z,100007.00
2024-04-17T00:20:51.965Z,100009.03
2024-04-17T00:23:21.947Z,100010.28
2024-04-17T00:25:49.051Z,100020.81
2024-04-17T00:28:18.771Z,100018.63
2024-04-17T00:30:49.696Z,100021.97
2024-04-17T00:33:19.478Z,100022.31
2024-04-17T00:35:46.724Z,100030.75
2024-04-17T00:38:19.077Z,100026.38
2024-04-17T00:40:46.171Z,100028.25
2024-04-17T00:43:15.818Z,100025.50
2024-04-17T00:45:44.862Z,100029.28
2024-04-17T00:48:16.373Z,100023.50
2024-04-17T00:50:46.422Z,100028.06
2024-04-17T00:53:31.729Z,100031.38
2024-04-17T00:55:58.939Z,100033.53
2024-04-17T00:58:30.201Z,100035.75
2024-04-17T01:00:57.271Z,100039.63
2024-04-17T01:03:27.594Z,100036.41
2024-04-17T01:05:54.808Z,100031.72
2024-04-17T01:08:27.159Z,100032.72
2024-04-17T01:11:00.822Z,100037.41
2024-04-17T01:13:30.918Z,100029.00
2024-04-17T01:15:58.387Z,100038.69
2024-04-17T01:18:28.439Z,100042.16
2024-04-17T01:20:56.101Z,100042.28
2024-04-17T01:23:28.306Z,100045.31
2024-04-17T01:25:57.968Z,100052.47
2024-04-17T01:28:27.683Z,100050.34
2024-04-17T01:30:54.703Z,100045.56
2024-04-17T01:33:24.399Z,100049.09
2024-04-17T01:35:51.414Z,100041.72
2024-04-17T01:38:21.049Z,100049.59
2024-04-17T01:40:48.362Z,100049.75
2024-04-17T01:43:20.817Z,100053.03
2024-04-17T01:45:48.251Z,100060.72
2024-04-17T01:48:18.179Z,100057.41
2024-04-17T01:50:45.311Z,100061.47
2024-04-17T01:53:14.963Z,100067.16
2024-04-17T01:55:42.260Z,100062.63
2024-04-17T01:58:11.883Z,100060.50
2024-04-17T02:00:41.649Z,100063.59
2024-04-17T02:03:11.642Z,100055.81
2024-04-17T02:05:38.756Z,100053.81
2024-04-17T02:08:09.180Z,100057.75
2024-04-17T02:10:36.209Z,100055.47
2024-04-17T02:13:06.182Z,100052.78
2024-04-17T02:15:33.256Z,100059.81
2024-04-17T02:18:05.629Z,100057.91
2024-04-17T02:20:32.750Z,100060.41
2024-04-17T02:23:02.506Z,100064.13
2024-04-17T02:25:29.609Z,100062.31
2024-04-17T02:27:59.276Z,100059.00
2024-04-17T02:30:26.319Z,100055.66
2024-04-17T02:32:56.117Z,100064.81
2024-04-17T02:35:25.939Z,100060.41
2024-04-17T02:37:55.616Z,100070.34
2024-04-17T02:40:22.765Z,100068.66
2024-04-17T02:42:52.365Z,100064.94
2024-04-17T02:45:19.472Z,100081.44
2024-04-17T02:47:49.246Z,100078.81
2024-04-17T02:50:16.339Z,100076.75
2024-04-17T02:52:48.730Z,100066.75
2024-04-17T02:55:15.969Z,100076.19
2024-04-17T02:57:45.584Z,100074.50
2024-04-17T03:00:18.962Z,100077.13
2024-04-17T03:02:46.074Z,100082.25
2024-04-17T03:05:15.828Z,100083.84
2024-04-17T03:07:45.872Z,100092.53
2024-04-17T03:10:15.671Z,100090.47
2024-04-17T03:12:42.667Z,100091.44
2024-04-17T03:15:13.507Z,100092.88
2024-04-17T03:17:40.745Z,100101.22
2024-04-17T03:20:11.061Z,100099.69
2024-04-17T03:22:38.154Z,100099.22
2024-04-17T03:25:10.487Z,100099.31
2024-04-17T03:27:37.561Z,100095.88
2024-04-17T03:30:09.493Z,100100.34
2024-04-17T03:32:36.604Z,100113.22
2024-04-17T03:35:06.440Z,100110.09
2024-04-17T03:37:36.139Z,100112.72
2024-04-17T03:40:06.648Z,100116.69
2024-04-17T03:42:38.895Z,100123.22
2024-04-17T03:45:06.450Z,100120.84
2024-04-17T03:47:38.928Z,100122.78
2024-04-17T03:50:06.633Z,100122.84
2024-04-17T03:52:36.310Z,100129.78
2024-04-17T03:55:03.520Z,100137.06
2024-04-17T03:57:34.102Z,100134.28
2024-04-17T04:00:04.704Z,100136.81
2024-04-17T04:02:35.573Z,100136.13
2024-04-17T04:05:02.795Z,100144.19
2024-04-17T04:07:32.479Z,100148.72
2024-04-17T04:09:59.842Z,100154.09
2024-04-17T04:12:29.415Z,100147.06
2024-04-17T04:14:56.472Z,100161.59
2024-04-17T04:17:28.787Z,100158.22
2024-04-17T04:19:55.923Z,100159.38
2024-04-17T04:22:26.979Z,100155.78
2024-04-17T04:24:54.004Z,100160.41
2024-04-17T04:27:23.804Z,100154.19
2024-04-17T04:29:50.839Z,100160.75
2024-04-17T04:32:20.559Z,100158.56
2024-04-17T04:34:50.322Z,100160.38
2024-04-17T04:37:19.975Z,100153.03
2024-04-17T04:39:47.079Z,100153.31
2024-04-17T04:42:16.690Z,100162.69
2024-04-17T04:44:43.737Z,100164.00
2024-04-17T04:47:16.629Z,100163.66
2024-04-17T04:49:45.480Z,100173.28
2024-04-17T04:52:17.901Z,100168.84
2024-04-17T04:54:44.900Z,100177.88
2024-04-17T04:57:14.547Z,100181.47
2024-04-17T04:59:41.910Z,100180.72
2024-04-17T05:02:11.726Z,100183.47
2024-04-17T05:04:38.923Z,100189.38
2024-04-17T05:07:09.034Z,100182.97
2024-04-17T05:09:38.746Z,100186.00
2024-04-17T05:12:09.105Z,100186.19
2024-04-17T05:14:36.367Z,100187.75
2024-04-17T05:17:06.438Z,100191.72
2024-04-17T05:19:33.637Z,100190.16
2024-04-17T05:22:03.247Z,100194.16
2024-04-17T05:24:30.460Z,100194.06
2024-04-17T05:27:02.742Z,100200.03
2024-04-17T05:29:29.765Z,100196.66
2024-04-17T05:31:59.494Z,100204.38
2024-04-17T05:34:26.666Z,100206.69
2024-04-17T05:36:56.389Z,100213.63
2024-04-17T05:39:23.527Z,100223.06
2024-04-17T05:41:53.216Z,100224.28
2024-04-17T05:44:22.882Z,100233.19
2024-04-17T05:46:52.762Z,100225.44
2024-04-17T05:49:19.787Z,100225.56
2024-04-17T05:51:49.485Z,100224.97
2024-04-17T05:54:16.528Z,100229.59
2024-04-17T05:56:46.186Z,100234.13
2024-04-17T05:59:13.385Z,100224.88
2024-04-17T06:01:45.800Z,100236.06
2024-04-17T06:04:13.061Z,100238.69
2024-04-17T06:06:45.118Z,100239.47
2024-04-17T06:09:12.169Z,100235.72
2024-04-17T06:11:41.851Z,100242.13
2024-04-17T06:14:09.670Z,100232.69
2024-04-17T06:16:39.507Z,100242.94
2024-04-17T06:19:09.152Z,100232.53
2024-04-17T06:21:38.881Z,100235.44
2024-04-17T06:24:06.345Z,100242.03
2024-04-17T06:26:36.067Z,100244.94
2024-04-17T06:29:03.218Z,100235.03
2024-04-17T06:31:35.778Z,100238.41
2024-04-17T06:34:03.369Z,100227.75
2024-04-17T06:36:35.825Z,100238.63
2024-04-17T06:39:02.871Z,100239.59
2024-04-17T06:41:42.918Z,100241.53
2024-04-17T06:44:21.200Z,100239.56
2024-04-17T06:46:48.278Z,100242.06
2024-04-17T06:49:17.982Z,100244.19
2024-04-17T06:51:47.604Z,100246.13
2024-04-17T06:54:17.274Z,100247.28
2024-04-17T06:56:44.303Z,100248.19
2024-04-17T06:59:14.170Z,100241.00
2024-04-17T07:01:41.425Z,100244.56
2024-04-17T07:04:11.169Z,100243.72
2024-04-17T07:06:39.486Z,100247.72
2024-04-17T07:09:11.872Z,100239.81
2024-04-17T07:11:39.025Z,100240.84
2024-04-17T07:14:08.825Z,100238.81
2024-04-17T07:16:35.925Z,100236.72
2024-04-17T07:19:05.642Z,100240.72
2024-04-17T07:21:32.773Z,100232.59
2024-04-17T07:24:02.507Z,100233.91
2024-04-17T07:26:32.196Z,100237.81
2024-04-17T07:29:01.844Z,100230.88
2024-04-17T07:31:29.122Z,100229.88
2024-04-17T07:33:58.719Z,100233.69
2024-04-17T07:36:25.742Z,100228.19
2024-04-17T07:38:55.580Z,100232.19
2024-04-17T07:41:22.699Z,100225.50
2024-04-17T07:43:55.028Z,100227.59
2024-04-17T07:46:22.102Z,100225.94
2024-04-17T07:48:51.813Z,100233.44
2024-04-17T07:51:19.127Z,100230.75
2024-04-17T07:53:48.746Z,100231.09
2024-04-17T07:56:15.812Z,100231.03
2024-04-17T07:58:45.445Z,100241.72
2024-04-17T08:01:16.854Z,100241.50
2024-04-17T08:03:47.504Z,100246.72
2024-04-17T08:06:14.536Z,100238.72
2024-04-17T08:08:44.216Z,100246.75
2024-04-17T08:11:11.528Z,100241.41
2024-04-17T08:13:41.494Z,100236.84
2024-04-17T08:16:08.584Z,100230.53
2024-04-17T08:18:41.217Z,100232.31
2024-04-17T08:21:09.433Z,100225.63
2024-04-17T08:23:40.573Z,100240.81
2024-04-17T08:26:07.952Z,100236.81
2024-04-17T08:28:37.630Z,100240.34
2024-04-17T08:31:05.029Z,100243.56
2024-04-17T08:33:34.714Z,100243.41
2024-04-17T08:36:04.812Z,100245.78
2024-04-17T08:38:34.574Z,100246.47
2024-04-17T08:41:01.750Z,100258.06
2024-04-17T08:43:31.442Z,100249.81
2024-04-17T08:45:59.656Z,100247.69
2024-04-17T08:48:30.285Z,100256.53
2024-04-17T08:50:58.910Z,100252.25
2024-04-17T08:53:33.198Z,100253.81
2024-04-17T08:56:00.356Z,100252.41
2024-04-17T08:58:30.608Z,100257.06
2024-04-17T09:00:58.193Z,100252.09
2024-04-17T09:03:27.910Z,100252.47
2024-04-17T09:05:57.598Z,100251.59
2024-04-17T09:08:28.033Z,100261.06
2024-04-17T09:11:00.763Z,100258.53
2024-04-17T09:13:27.924Z,100254.50
2024-04-17T09:15:57.882Z,100255.13
2024-04-17T09:18:25.832Z,100260.13
2024-04-17T09:20:55.584Z,100258.06
2024-04-17T09:23:22.642Z,100259.84
2024-04-17T09:25:52.327Z,100256.78
2024-04-17T09:28:22.186Z,100254.34
2024-04-17T09:30:52.482Z,100252.13
2024-04-17T09:33:19.558Z,100255.78
2024-04-17T09:35:49.753Z,100251.25
2024-04-17T09:38:17.321Z,100248.34
2024-04-17T09:40:48.203Z,100246.81
2024-04-17T09:43:29.680Z,100248.88
2024-04-17T09:46:03.258Z,100233.97
2024-04-17T09:48:31.185Z,100247.97
2024-04-17T09:51:04.740Z,100242.81
2024-04-17T09:53:37.646Z,100235.91
2024-04-17T09:56:09.128Z,100230.09
2024-04-17T09:58:44.174Z,100232.72
2024-04-17T10:01:16.304Z,100236.97
2024-04-17T10:03:43.672Z,100236.03
2024-04-17T10:06:13.324Z,100227.34
2024-04-17T10:08:40.704Z,100227.81
2024-04-17T10:11:10.947Z,100230.84
2024-04-17T10:13:43.481Z,100223.59
2024-04-17T10:16:13.000Z,100217.69
2024-04-17T10:18:44.169Z,100220.88
2024-04-17T10:21:18.259Z,100217.19
2024-04-17T10:23:47.903Z,100216.78
2024-04-17T10:26:15.002Z,100217.78
2024-04-17T10:28:54.063Z,100213.41
2024-04-17T10:31:21.094Z,100215.03
2024-04-17T10:33:52.804Z,100202.63
2024-04-17T10:36:21.114Z,100215.09
2024-04-17T10:38:50.838Z,100208.19
2024-04-17T10:41:21.361Z,100202.06
2024-04-17T10:43:51.397Z,100206.16
2024-04-17T10:46:24.110Z,100196.06
2024-04-17T10:48:51.942Z,100204.09
2024-04-17T10:51:22.538Z,100203.25
2024-04-17T10:53:49.853Z,100203.88
2024-04-17T10:56:20.181Z,100208.69
2024-04-17T10:58:47.201Z,100209.84
2024-04-17T11:01:19.812Z,100205.53
2024-04-17T11:03:47.128Z,100204.88
2024-04-17T11:06:16.790Z,100199.47
2024-04-17T11:08:51.549Z,100205.84
2024-04-17T11:11:28.500Z,100214.56
2024-04-17T11:13:55.737Z,100207.19
2024-04-17T11:16:28.119Z,100210.75
2024-04-17T11:18:55.355Z,100203.88
2024-04-17T11:21:25.867Z,100201.16
2024-04-17T11:23:52.876Z,100208.63
2024-04-17T11:26:22.654Z,100195.47
2024-04-17T11:28:51.915Z,100196.78
2024-04-17T11:31:22.216Z,100190.66
2024-04-17T11:33:52.037Z,100199.41
2024-04-17T11:36:21.699Z,100190.06
2024-04-17T11:38:48.970Z,100192.16
2024-04-17T11:41:19.105Z,100187.91
2024-04-17T11:43:46.887Z,100184.16
2024-04-17T11:46:19.501Z,100178.78
2024-04-17T11:48:47.050Z,100189.94
2024-04-17T11:51:19.604Z,100191.72
2024-04-17T11:53:46.591Z,100200.25
2024-04-17T11:56:17.024Z,100196.59
2024-04-17T11:58:46.882Z,100192.84
2024-04-17T12:01:16.662Z,100189.22
2024-04-17T12:03:43.775Z,100202.38
2024-04-17T12:06:13.802Z,100199.84
2024-04-17T12:08:43.528Z,100197.38
2024-04-17T12:11:13.366Z,100194.41
2024-04-17T12:13:40.514Z,100201.84
2024-04-17T12:16:12.069Z,100191.50
2024-04-17T12:18:39.231Z,100199.41
2024-04-17T12:21:08.913Z,100198.78
2024-04-17T12:23:38.685Z,100197.50
2024-04-17T12:26:28.672Z,100196.84
2024-04-17T12:28:58.559Z,100205.63
2024-04-17T12:31:28.888Z,100199.72
2024-04-17T12:33:58.933Z,100203.72
2024-04-17T12:36:28.631Z,100203.66
2024-04-17T12:38:58.576Z,100209.44
2024-04-17T12:41:30.293Z,100203.22
2024-04-17T12:44:00.429Z,100198.25
2024-04-17T12:46:30.853Z,100195.47
2024-04-17T12:49:00.483Z,100199.97
2024-04-17T12:51:27.530Z,100186.72
2024-04-17T12:53:57.139Z,100190.06
2024-04-17T12:56:27.063Z,100182.31
2024-04-17T12:58:59.444Z,100183.31
2024-04-17T13:01:26.513Z,100191.38
2024-04-17T13:03:58.552Z,100191.13
2024-04-17T13:06:26.657Z,100187.47
2024-04-17T13:08:56.459Z,100192.78
2024-04-17T13:11:23.528Z,100195.13
2024-04-17T13:13:55.726Z,100193.38
2024-04-17T13:16:25.553Z,100194.69
2024-04-17T13:18:55.192Z,100192.81
2024-04-17T13:21:22.311Z,100200.47
2024-04-17T13:23:52.171Z,100210.81
2024-04-17T13:26:20.997Z,100205.75
2024-04-17T13:28:51.406Z,100213.19
2024-04-17T13:31:18.459Z,100214.91
2024-04-17T13:33:50.700Z,100210.66
2024-04-17T13:36:18.007Z,100219.34
2024-04-17T13:38:47.735Z,100217.13
2024-04-17T13:41:16.224Z,100222.56
2024-04-17T13:43:47.722Z,100217.88
2024-04-17T13:46:15.632Z,100219.72
2024-04-17T13:48:45.379Z,100220.34
2024-04-17T13:53:52.105Z,100222.66
2024-04-17T13:56:19.471Z,100225.59
2024-04-17T13:58:49.188Z,100221.34
2024-04-17T14:01:16.461Z,100229.91
2024-04-17T14:03:46.148Z,100232.97
2024-04-17T14:06:15.902Z,100235.97
2024-04-17T14:08:45.546Z,100229.00
2024-04-17T14:11:12.726Z,100225.75
2024-04-17T14:13:42.486Z,100231.50
2024-04-17T14:16:09.560Z,100224.59
2024-04-17T14:18:39.523Z,100232.44
2024-04-17T14:21:16.908Z,100226.31
2024-04-17T14:23:47.403Z,100230.78
2024-04-17T14:26:15.415Z,100227.44
2024-04-17T14:28:45.055Z,100230.34
2024-04-17T14:31:12.089Z,100232.44
2024-04-17T14:33:41.850Z,100235.16
2024-04-17T14:36:09.460Z,100242.06
2024-04-17T14:38:43.720Z,100230.44
2024-04-17T14:41:11.232Z,100240.03
2024-04-17T14:43:40.878Z,100249.69
2024-04-17T14:46:07.974Z,100248.22
2024-04-17T14:48:38.075Z,100243.44
2024-04-17T14:51:06.808Z,100248.66
2024-04-17T14:53:37.882Z,100246.84
2024-04-17T14:56:09.175Z,100250.94
2024-04-17T14:58:40.564Z,100243.25
2024-04-17T15:01:08.790Z,100256.50
2024-04-17T15:03:39.474Z,100248.34
2024-04-17T15:06:07.607Z,100248.19
2024-04-17T15:08:37.504Z,100256.38
2024-04-17T15:11:08.575Z,100253.38
2024-04-17T15:13:38.727Z,100262.38
2024-04-17T15:16:06.515Z,100255.88
2024-04-17T15:18:36.557Z,100259.88
2024-04-17T15:21:07.749Z,100258.41
2024-04-17T15:23:37.533Z,100251.03
2024-04-17T15:26:08.321Z,100251.88
2024-04-17T15:28:38.571Z,100254.50
2024-04-17T15:31:06.775Z,100247.84
2024-04-17T15:33:37.764Z,100243.06
2024-04-17T15:36:06.347Z,100241.13
2024-04-17T15:38:36.976Z,100248.66
2024-04-17T15:41:07.897Z,100239.69
2024-04-17T15:43:38.534Z,100244.31
2024-04-17T15:46:09.118Z,100243.72
2024-04-17T15:48:38.885Z,100244.31
2024-04-17T15:51:07.167Z,100253.03
2024-04-17T15:53:38.582Z,100248.16
2024-04-17T15:56:14.830Z,100255.06
2024-04-17T15:58:44.600Z,100246.97
2024-04-17T16:01:13.070Z,100246.59
2024-04-17T16:03:43.219Z,100256.38
2024-04-17T16:06:11.438Z,100251.59
2024-04-17T16:08:41.180Z,100249.81
2024-04-17T16:11:11.499Z,100259.22
2024-04-17T16:13:43.503Z,100255.28
2024-04-17T16:16:11.094Z,100256.81
2024-04-17T16:18:41.415Z,100260.78
2024-04-17T16:21:11.867Z,100256.31
2024-04-17T16:23:41.715Z,100266.16
2024-04-17T16:26:18.475Z,100262.72
2024-04-17T16:28:47.370Z,100266.88
2024-04-17T16:31:19.283Z,100268.50
2024-04-17T16:33:47.594Z,100275.69
2024-04-17T16:36:17.671Z,100273.06
2024-04-17T16:38:45.797Z,100279.41
2024-04-17T16:41:19.775Z,100289.38
2024-04-17T16:43:46.881Z,100284.41
2024-04-17T16:46:17.567Z,100289.03
2024-04-17T16:48:44.891Z,100295.38
2024-04-17T16:51:15.125Z,100297.66
2024-04-17T16:53:42.130Z,100309.91
2024-04-17T16:56:12.047Z,100324.63
2024-04-17T16:58:41.828Z,100312.94
2024-04-17T17:01:11.589Z,100315.03
2024-04-17T17:03:38.925Z,100322.13
2024-04-17T17:06:10.871Z,100317.66
2024-04-17T17:08:38.551Z,100322.44
2024-04-17T17:11:09.031Z,100327.72
2024-04-17T17:13:36.380Z,100326.34
2024-04-17T17:16:09.500Z,100329.84
2024-04-17T17:18:36.796Z,100327.84
2024-04-17T17:21:09.612Z,100327.84
2024-04-17T17:23:36.996Z,100325.19
2024-04-17T17:26:13.970Z,100329.31
2024-04-17T17:28:41.644Z,100330.78
2024-04-17T17:31:14.055Z,100329.56
2024-04-17T17:33:41.542Z,100334.38
2024-04-17T17:36:14.587Z,100338.66
2024-04-17T17:38:43.158Z,100334.94
2024-04-17T17:41:14.673Z,100348.66
2024-04-17T17:43:43.604Z,100343.47
2024-04-17T17:46:17.078Z,100339.44
2024-04-17T17:48:45.607Z,100340.72
2024-04-17T17:51:16.521Z,100341.50
2024-04-17T17:53:44.947Z,100341.00
2024-04-17T17:56:17.183Z,100351.50
2024-04-17T17:58:46.007Z,100354.78
2024-04-17T18:01:20.673Z,100353.16
2024-04-17T18:03:48.858Z,100357.25
2024-04-17T18:06:19.153Z,100365.69
2024-04-17T18:08:47.038Z,100365.69
2024-04-17T18:11:19.787Z,100370.41
2024-04-17T18:13:48.288Z,100362.38
2024-04-17T18:16:29.247Z,100367.59
2024-04-17T18:19:01.466Z,100374.84
2024-04-17T18:21:31.635Z,100374.78
2024-04-17T18:23:59.038Z,100385.09
2024-04-17T18:26:30.172Z,100378.44
2024-04-17T18:28:57.420Z,100391.44
2024-04-17T18:31:29.708Z,100394.63
2024-04-17T18:33:57.054Z,100393.53
2024-04-17T18:36:30.824Z,100395.94
2024-04-17T18:38:58.385Z,100404.16
2024-04-17T18:41:28.452Z,100408.66
2024-04-17T18:43:56.710Z,100409.25
2024-04-17T18:46:30.228Z,100415.94
2024-04-17T18:48:59.256Z,100417.88
2024-04-17T18:51:29.158Z,100422.63
2024-04-17T18:53:56.207Z,100423.06
2024-04-17T18:56:30.189Z,100427.53
2024-04-17T18:58:57.789Z,100435.88
2024-04-17T19:01:30.199Z,100433.66
2024-04-17T19:03:57.443Z,100436.59
2024-04-17T19:06:29.561Z,100442.44
2024-04-17T19:08:56.664Z,100445.34
2024-04-17T19:11:26.345Z,100445.47
2024-04-17T19:13:53.420Z,100449.81
2024-04-17T19:16:23.921Z,100451.75
2024-04-17T19:18:53.969Z,100460.94
2024-04-17T19:21:23.716Z,100460.13
2024-04-17T19:23:50.738Z,100462.91
2024-04-17T19:26:20.446Z,100463.03
2024-04-17T19:28:47.628Z,100463.47
2024-04-17T19:31:17.419Z,100467.78
2024-04-17T19:33:45.778Z,100473.91
2024-04-17T19:36:19.454Z,100471.13
2024-04-17T19:38:49.423Z,100470.84
2024-04-17T19:41:19.332Z,100472.50
2024-04-17T19:43:47.973Z,100476.69
2024-04-17T19:46:18.540Z,100466.66
2024-04-17T19:48:46.033Z,100470.00
2024-04-17T19:51:19.432Z,100473.47
2024-04-17T19:53:46.987Z,100477.78
2024-04-17T19:56:17.109Z,100473.59
2024-04-17T19:58:44.495Z,100477.22
2024-04-17T20:01:15.067Z,100476.53
2024-04-17T20:03:43.873Z,100466.94
2024-04-17T20:06:14.419Z,100478.91
2024-04-17T20:08:44.157Z,100473.34
2024-04-17T20:11:14.384Z,100477.94
2024-04-17T20:13:41.535Z,100480.19
2024-04-17T20:16:12.055Z,100476.00
2024-04-17T20:18:39.737Z,100481.16
2024-04-17T20:21:12.312Z,100480.44
2024-04-17T20:23:41.254Z,100473.91
2024-04-17T20:26:14.646Z,100479.88
2024-04-17T20:28:51.351Z,100471.94
2024-04-17T20:31:26.718Z,100480.84
2024-04-17T20:33:55.989Z,100480.84
2024-04-17T20:36:25.911Z,100484.47
2024-04-17T20:38:53.137Z,100485.59
2024-04-17T20:41:25.623Z,100483.50
2024-04-17T20:43:52.673Z,100486.00
2024-04-17T20:46:22.331Z,100485.31
2024-04-17T20:48:51.378Z,100489.47
2024-04-17T20:51:21.346Z,100487.41
2024-04-17T20:53:48.397Z,100483.91
2024-04-17T20:56:18.065Z,100488.53
2024-04-17T20:58:47.755Z,100495.91
2024-04-17T21:01:17.481Z,100496.59
2024-04-17T21:03:44.766Z,100495.75
2024-04-17T21:06:16.236Z,100500.34
2024-04-17T21:08:43.640Z,100511.31
2024-04-17T21:11:14.791Z,100511.59
2024-04-17T21:13:42.417Z,100515.78
2024-04-17T21:16:18.669Z,100520.88
2024-04-17T21:18:47.880Z,100529.38
2024-04-17T21:21:17.876Z,100524.63
2024-04-17T21:23:45.113Z,100535.88
2024-04-17T21:26:15.130Z,100533.63
2024-04-17T21:28:42.939Z,100535.94
2024-04-17T21:31:17.251Z,100532.75
2024-04-17T21:33:44.845Z,100536.06
2024-04-17T21:36:14.674Z,100542.59
2024-04-17T21:38:42.402Z,100547.53
2024-04-17T21:41:12.379Z,100552.66
2024-04-17T21:43:39.616Z,100551.25
2024-04-17T21:46:11.437Z,100562.06
2024-04-17T21:48:42.557Z,100560.91
2024-04-17T21:51:12.536Z,100567.44
2024-04-17T21:53:40.401Z,100568.19
2024-04-17T21:56:12.706Z,100567.75
2024-04-17T21:58:40.410Z,100566.78
2024-04-17T22:01:10.795Z,100573.88
2024-04-17T22:03:40.998Z,100569.69
2024-04-17T22:06:12.371Z,100571.63
2024-04-17T22:08:42.634Z,100569.34
2024-04-17T22:11:12.503Z,100573.91
2024-04-17T22:13:39.828Z,100579.31
2024-04-17T22:16:09.694Z,100582.34
2024-04-17T22:18:36.957Z,100584.41
2024-04-17T22:21:09.437Z,100581.19
2024-04-17T22:23:36.476Z,100588.50
2024-04-17T22:26:06.235Z,100589.72
2024-04-17T22:28:33.357Z,100595.97
2024-04-17T22:31:03.149Z,100589.97
2024-04-17T22:33:32.178Z,100599.94
2024-04-17T22:36:01.995Z,100603.69
2024-04-17T22:38:31.795Z,100602.72
2024-04-17T22:41:01.471Z,100605.34
2024-04-17T22:43:28.518Z,100608.19
2024-04-17T22:45:58.160Z,100613.72
2024-04-17T22:48:25.297Z,100612.16
2024-04-17T22:50:54.964Z,100614.22
2024-04-17T22:53:22.068Z,100620.34
2024-04-17T22:55:54.415Z,100616.41
2024-04-17T22:58:21.497Z,100618.19
2024-04-17T23:00:51.297Z,100622.16
2024-04-17T23:03:18.457Z,100617.38
2024-04-17T23:05:48.127Z,100621.69
2024-04-17T23:08:15.147Z,100620.28
2024-04-17T23:10:44.781Z,100624.00
2024-04-17T23:13:14.522Z,100617.25
2024-04-17T23:15:44.281Z,100625.16
2024-04-17T23:18:11.365Z,100623.75
2024-04-17T23:20:41.108Z,100626.88
2024-04-17T23:23:08.550Z,100630.81
2024-04-17T23:25:38.307Z,100624.72
2024-04-17T23:28:05.650Z,100620.28
2024-04-17T23:30:37.996Z,100626.84
2024-04-17T23:33:05.450Z,100630.56
2024-04-17T23:35:35.214Z,100623.28
2024-04-17T23:38:02.205Z,100629.97
2024-04-17T23:40:32.090Z,100622.69
2024-04-17T23:42:59.168Z,100626.53
2024-04-17T23:45:29.147Z,100633.84
2024-04-17T23:47:58.876Z,100635.88
2024-04-17T23:50:28.592Z,100633.13
2024-04-17T23:52:55.602Z,100635.88
2024-04-17T23:55:25.206Z,100643.78
2024-04-17T23:57:52.231Z,100644.47
